Time;durP1;ratioP1;P1;durP2;ratioP2;P2;SDS_P1;SDS_P2;PMS_P1;PMS_P2;Temp;Humidity;BMP_temperature;BMP_pressure;BME280_temperature;BME280_humidity;BME280_pressure;Samples;Min_cycle;Max_cycle;Signal;HPM_P1;HPM_P2
2021/12/16 00:09:39;;;;;;;25.10;9.65;;;8.50;99.90;;;;;;5035301;28;20085;-70
2021/12/16 00:34:13;;;;;;;25.38;9.48;;;8.90;99.90;;;;;;5032568;28;20494;-70
2021/12/16 00:36:40;;;;;;;26.08;8.90;;;9.00;99.90;;;;;;5033517;28;20417;-69
2021/12/16 00:39:09;;;;;;;22.98;8.18;;;9.00;99.90;;;;;;5043053;28;20136;-70
2021/12/16 00:41:37;;;;;;;21.83;8.65;;;9.10;99.90;;;;;;5032004;28;20155;-69
2021/12/16 00:45:07;;;;;;;23.10;8.60;;;9.90;99.90;;;;;;5047078;28;20037;-70
2021/12/16 00:49:32;;;;;;;25.98;9.35;;;9.20;99.90;;;;;;5046431;28;20115;-70
2021/12/16 00:54:48;;;;;;;23.83;9.52;;;9.20;99.90;;;;;;5037476;28;20050;-69
2021/12/16 00:57:16;;;;;;;30.83;9.75;;;9.20;99.90;;;;;;5042144;28;20052;-70
2021/12/16 00:59:46;;;;;;;22.25;9.38;;;9.30;99.90;;;;;;5031089;28;20116;-70
2021/12/16 01:02:39;;;;;;;23.90;8.50;;;9.30;99.90;;;;;;5031068;28;20048;-70
2021/12/16 01:35:18;;;;;;;21.33;7.72;;;9.40;99.90;;;;;;5042031;28;20049;-70
2021/12/16 01:50:57;;;;;;;20.65;8.25;;;9.50;99.90;;;;;;5033456;28;20069;-70
2021/12/16 01:56:01;;;;;;;18.80;8.30;;;9.40;99.90;;;;;;5041026;28;20045;-69
2021/12/16 01:58:30;;;;;;;20.90;8.15;;;9.40;99.90;;;;;;5028538;28;20080;-70
2021/12/16 02:01:15;;;;;;;23.50;9.57;;;9.40;99.90;;;;;;5031432;28;20046;-70
2021/12/16 02:03:48;;;;;;;20.53;9.00;;;9.40;99.90;;;;;;5048931;28;20053;-70
2021/12/16 02:08:52;;;;;;;22.50;9.65;;;9.40;99.90;;;;;;5048710;28;20156;-69
2021/12/16 02:35:41;;;;;;;21.65;8.95;;;9.50;99.90;;;;;;5040487;28;20057;-69
2021/12/16 02:38:07;;;;;;;22.60;8.53;;;9.50;99.90;;;;;;5035595;28;20041;-70
2021/12/16 02:40:36;;;;;;;17.67;7.90;;;9.50;99.90;;;;;;5029471;28;20057;-70
2021/12/16 02:43:25;;;;;;;18.63;7.93;;;9.50;99.90;;;;;;5028581;28;20383;-69
2021/12/16 02:48:38;;;;;;;22.02;7.85;;;9.50;99.90;;;;;;5045803;28;20053;-70
2021/12/16 02:51:10;;;;;;;23.02;8.25;;;10.10;99.90;;;;;;5047450;28;20048;-69
2021/12/16 02:53:40;;;;;;;17.55;7.63;;;9.50;99.90;;;;;;5047939;28;20040;-69
2021/12/16 02:56:06;;;;;;;18.63;8.05;;;9.50;99.90;;;;;;5046284;28;20060;-69
2021/12/16 02:58:34;;;;;;;18.80;7.93;;;9.40;99.90;;;;;;5029457;28;20096;-69
2021/12/16 03:01:36;;;;;;;16.83;7.85;;;9.40;99.90;;;;;;5035687;28;20048;-69
2021/12/16 03:04:06;;;;;;;20.13;8.10;;;9.30;99.90;;;;;;5040952;28;20049;-69
2021/12/16 03:06:33;;;;;;;20.23;9.00;;;9.30;99.90;;;;;;5033790;28;20114;-69
2021/12/16 03:09:00;;;;;;;20.35;8.73;;;9.20;99.90;;;;;;5029039;28;20048;-69
2021/12/16 03:19:38;;;;;;;19.13;8.43;;;9.10;99.90;;;;;;5046562;28;20072;-69
2021/12/16 03:22:05;;;;;;;21.40;8.40;;;9.00;99.90;;;;;;5047870;28;20401;-69
2021/12/16 03:25:07;;;;;;;25.73;8.48;;;8.90;99.90;;;;;;5046949;28;20041;-70
2021/12/16 03:28:31;;;;;;;18.33;7.70;;;8.90;99.90;;;;;;5048000;28;20049;-70
2021/12/16 03:30:53;;;;;;;21.80;8.77;;;8.80;99.90;;;;;;5043987;28;20387;-70
2021/12/16 03:36:08;;;;;;;19.30;8.50;;;8.70;99.90;;;;;;5045702;28;20057;-69
2021/12/16 03:38:37;;;;;;;21.52;8.35;;;8.70;99.90;;;;;;5028849;28;20080;-69
2021/12/16 03:41:05;;;;;;;17.70;7.82;;;8.70;99.90;;;;;;5044439;28;20092;-69
2021/12/16 03:43:32;;;;;;;17.73;7.63;;;8.60;99.90;;;;;;5046230;28;20055;-69
2021/12/16 03:49:01;;;;;;;19.50;8.40;;;8.60;99.90;;;;;;5033245;28;20088;-69
2021/12/16 03:51:33;;;;;;;18.65;8.20;;;8.60;99.90;;;;;;5047266;28;20049;-69
2021/12/16 03:54:25;;;;;;;20.20;8.60;;;8.50;99.90;;;;;;5035490;28;20045;-69
2021/12/16 03:56:53;;;;;;;22.40;8.55;;;8.50;99.90;;;;;;5036300;28;20110;-70
2021/12/16 03:59:25;;;;;;;22.70;7.95;;;8.40;99.90;;;;;;5044262;28;20040;-69
2021/12/16 04:01:52;;;;;;;18.88;8.18;;;8.40;99.90;;;;;;5027100;28;20045;-69
2021/12/16 04:04:18;;;;;;;20.02;9.07;;;8.40;99.90;;;;;;5033622;28;20045;-69
2021/12/16 04:06:43;;;;;;;21.90;9.02;;;8.30;99.90;;;;;;5028658;28;20504;-69
2021/12/16 04:09:13;;;;;;;22.05;9.10;;;8.30;99.90;;;;;;5043674;28;20439;-70
2021/12/16 04:11:44;;;;;;;23.92;8.65;;;8.30;99.90;;;;;;5046417;28;20508;-69
2021/12/16 04:14:14;;;;;;;24.98;9.20;;;8.30;99.90;;;;;;5045975;28;20067;-70
2021/12/16 04:16:50;;;;;;;16.80;8.15;;;8.20;99.90;;;;;;5030324;28;20037;-69
2021/12/16 04:19:21;;;;;;;24.45;9.38;;;8.20;99.90;;;;;;5049541;28;20053;-69
2021/12/16 04:21:55;;;;;;;20.52;9.43;;;8.20;99.90;;;;;;5048209;28;20041;-69
2021/12/16 04:24:21;;;;;;;21.55;8.70;;;8.10;99.90;;;;;;5046408;28;20060;-69
2021/12/16 04:26:51;;;;;;;27.70;9.25;;;8.10;99.90;;;;;;5048320;28;20045;-70
2021/12/16 04:29:17;;;;;;;20.15;8.65;;;8.10;99.90;;;;;;5045373;28;20049;-69
2021/12/16 04:31:45;;;;;;;21.05;9.07;;;8.20;99.90;;;;;;5048160;28;20037;-69
2021/12/16 04:34:11;;;;;;;20.77;9.35;;;8.40;99.90;;;;;;5025321;28;20059;-69
2021/12/16 04:36:37;;;;;;;19.55;8.93;;;8.10;99.90;;;;;;5042283;28;20094;-69
2021/12/16 04:39:17;;;;;;;18.35;9.13;;;8.90;99.90;;;;;;5033724;28;20405;-69
2021/12/16 04:41:44;;;;;;;19.50;9.05;;;8.10;99.90;;;;;;5031630;28;20073;-70
2021/12/16 04:44:13;;;;;;;19.67;10.00;;;8.00;99.90;;;;;;5053000;28;20079;-69
2021/12/16 04:46:40;;;;;;;22.10;10.00;;;8.00;99.90;;;;;;5050670;28;20059;-70
2021/12/16 04:49:07;;;;;;;20.83;10.90;;;8.10;99.90;;;;;;5050287;28;20044;-70
2021/12/16 04:51:38;;;;;;;20.80;9.05;;;8.00;99.90;;;;;;5048612;28;20049;-69
2021/12/16 04:54:05;;;;;;;24.35;8.60;;;8.00;99.90;;;;;;5051743;28;20464;-69
2021/12/16 04:56:31;;;;;;;20.83;9.20;;;9.00;99.90;;;;;;5031074;28;20060;-69
2021/12/16 04:58:58;;;;;;;22.17;9.35;;;8.00;99.90;;;;;;5047128;28;20041;-69
2021/12/16 05:01:24;;;;;;;24.05;9.60;;;8.00;99.90;;;;;;5047485;28;20041;-69
2021/12/16 05:03:51;;;;;;;23.70;9.10;;;7.90;99.90;;;;;;5049593;28;20048;-69
2021/12/16 05:06:18;;;;;;;22.63;10.32;;;7.80;99.90;;;;;;5046289;28;20090;-70
2021/12/16 05:08:44;;;;;;;23.15;10.27;;;7.80;99.90;;;;;;5044293;28;20045;-69
2021/12/16 05:11:13;;;;;;;23.02;10.20;;;7.80;99.90;;;;;;5030580;28;20039;-69
2021/12/16 05:13:42;;;;;;;23.45;9.93;;;7.80;99.90;;;;;;5030068;28;20095;-69
2021/12/16 05:16:08;;;;;;;22.63;9.80;;;7.80;99.90;;;;;;5046286;28;20446;-69
2021/12/16 05:18:37;;;;;;;23.65;10.15;;;7.90;99.90;;;;;;5050349;28;20096;-69
2021/12/16 05:21:41;;;;;;;22.55;9.23;;;7.90;99.90;;;;;;5050227;28;20045;-69
2021/12/16 05:26:48;;;;;;;21.58;9.23;;;7.80;99.90;;;;;;5040965;28;20468;-69
2021/12/16 05:29:14;;;;;;;21.77;10.13;;;7.80;99.90;;;;;;5033595;28;20049;-69
2021/12/16 05:31:40;;;;;;;20.48;10.07;;;7.80;99.90;;;;;;5049187;28;20033;-69
2021/12/16 05:34:07;;;;;;;20.95;10.52;;;7.80;99.90;;;;;;5050434;28;20052;-69
2021/12/16 05:36:33;;;;;;;25.30;10.75;;;7.80;99.90;;;;;;5046832;28;20040;-69
2021/12/16 05:39:00;;;;;;;26.20;9.90;;;8.30;99.90;;;;;;5043574;28;20115;-69
2021/12/16 05:41:26;;;;;;;21.35;9.63;;;7.80;99.90;;;;;;5046919;28;20139;-70
2021/12/16 05:43:55;;;;;;;23.67;10.02;;;7.80;99.90;;;;;;5050747;28;20051;-70
2021/12/16 05:46:22;;;;;;;22.85;10.40;;;7.90;99.90;;;;;;5033488;28;20117;-70
2021/12/16 05:48:50;;;;;;;24.65;10.10;;;7.90;99.90;;;;;;5014169;28;20479;-69
2021/12/16 05:51:21;;;;;;;21.80;10.48;;;7.90;99.90;;;;;;5048473;28;20575;-70
2021/12/16 05:53:48;;;;;;;23.83;10.05;;;7.90;99.90;;;;;;5049399;28;20125;-69
2021/12/16 05:56:14;;;;;;;23.90;10.23;;;7.90;99.90;;;;;;5052369;28;20060;-69
2021/12/16 05:58:40;;;;;;;19.75;9.63;;;7.90;99.90;;;;;;5033729;28;20512;-69
2021/12/16 06:01:16;;;;;;;21.00;9.48;;;7.90;99.90;;;;;;5034035;28;20115;-69
2021/12/16 06:03:43;;;;;;;24.70;10.88;;;7.80;99.90;;;;;;5029134;28;20084;-69
2021/12/16 06:06:09;;;;;;;24.98;10.18;;;7.80;99.90;;;;;;5029301;28;20045;-70
2021/12/16 06:08:35;;;;;;;30.83;11.38;;;7.80;99.90;;;;;;5036362;28;20052;-69
2021/12/16 06:11:17;;;;;;;20.63;10.13;;;7.80;99.90;;;;;;5029462;28;20409;-69
2021/12/16 06:13:57;;;;;;;24.25;9.93;;;7.70;99.90;;;;;;5031458;28;20046;-69
2021/12/16 06:27:23;;;;;;;24.83;10.63;;;7.60;99.90;;;;;;5047946;28;20045;-70
2021/12/16 06:29:49;;;;;;;27.30;10.90;;;7.60;99.90;;;;;;5047611;28;20122;-69
2021/12/16 06:32:15;;;;;;;26.13;10.25;;;7.60;99.90;;;;;;5049281;28;20084;-70
2021/12/16 06:34:43;;;;;;;22.02;11.60;;;7.60;99.90;;;;;;5027175;28;20056;-69
2021/12/16 06:37:09;;;;;;;24.75;11.55;;;7.60;99.90;;;;;;5030383;28;20044;-70
2021/12/16 06:39:36;;;;;;;20.63;10.95;;;7.50;99.90;;;;;;5041562;28;20919;-70
2021/12/16 06:42:05;;;;;;;22.02;11.07;;;7.50;99.90;;;;;;5031597;28;20045;-68
2021/12/16 06:44:38;;;;;;;26.27;11.32;;;7.50;99.90;;;;;;5047875;28;20358;-68
2021/12/16 06:47:09;;;;;;;31.80;12.77;;;7.40;99.90;;;;;;5048553;28;20037;-68
2021/12/16 06:49:38;;;;;;;24.95;11.10;;;7.50;99.90;;;;;;5039310;28;20117;-68
2021/12/16 06:52:06;;;;;;;28.23;11.15;;;7.40;99.90;;;;;;5028793;28;20051;-68
2021/12/16 06:54:40;;;;;;;20.80;10.63;;;7.40;99.90;;;;;;5026361;28;20057;-69
2021/12/16 06:57:20;;;;;;;25.52;11.65;;;7.40;99.90;;;;;;5028972;28;20038;-69
2021/12/16 06:59:57;;;;;;;24.85;11.38;;;7.40;99.90;;;;;;5027870;28;20041;-69
2021/12/16 07:02:45;;;;;;;24.38;11.82;;;8.40;99.90;;;;;;5028169;28;20095;-69
2021/12/16 07:05:13;;;;;;;23.23;11.88;;;7.40;99.90;;;;;;5040414;28;20445;-70
2021/12/16 07:07:39;;;;;;;25.83;11.50;;;7.40;99.90;;;;;;5048417;28;20121;-69
2021/12/16 07:10:07;;;;;;;25.27;12.02;;;7.50;99.90;;;;;;5046996;28;20123;-69
2021/12/16 07:12:37;;;;;;;27.40;12.45;;;7.50;99.90;;;;;;5047315;28;20055;-68
2021/12/16 07:15:10;;;;;;;31.70;12.52;;;7.70;99.90;;;;;;5034340;28;20068;-70
2021/12/16 07:17:38;;;;;;;30.58;12.30;;;7.40;99.90;;;;;;5027728;28;20481;-69
2021/12/16 07:20:06;;;;;;;23.85;12.13;;;7.40;99.90;;;;;;5026854;28;20052;-70
2021/12/16 07:22:34;;;;;;;28.85;12.73;;;7.40;99.90;;;;;;5027693;28;20404;-69
2021/12/16 07:25:01;;;;;;;23.75;11.68;;;7.40;99.90;;;;;;5027053;28;20048;-69
2021/12/16 07:27:27;;;;;;;26.60;12.57;;;7.40;99.90;;;;;;5027271;28;20057;-69
2021/12/16 07:29:53;;;;;;;26.42;12.63;;;7.40;99.90;;;;;;5026174;28;20054;-69
2021/12/16 07:32:18;;;;;;;27.25;12.65;;;7.70;99.90;;;;;;5027920;28;20128;-69
2021/12/16 07:34:44;;;;;;;26.92;12.25;;;7.40;99.90;;;;;;5027169;28;20041;-69
2021/12/16 07:37:10;;;;;;;24.63;12.10;;;7.40;99.90;;;;;;5031087;28;20121;-69
2021/12/16 07:39:41;;;;;;;30.77;12.57;;;7.40;99.90;;;;;;5043437;28;20486;-69
2021/12/16 07:42:11;;;;;;;26.88;12.43;;;7.50;99.90;;;;;;5047964;28;20119;-70
2021/12/16 07:44:37;;;;;;;28.15;12.98;;;8.20;99.90;;;;;;5038590;28;20556;-70
2021/12/16 07:47:06;;;;;;;32.22;12.60;;;7.40;99.90;;;;;;5047663;28;20136;-70
2021/12/16 07:49:35;;;;;;;25.10;13.57;;;7.50;99.90;;;;;;5047400;28;20049;-70
2021/12/16 07:52:04;;;;;;;32.97;13.82;;;7.50;99.90;;;;;;5045465;28;20482;-70
2021/12/16 07:54:30;;;;;;;30.40;13.02;;;7.50;99.90;;;;;;5036938;28;20110;-70
2021/12/16 07:56:59;;;;;;;32.65;12.95;;;8.20;99.90;;;;;;5046136;28;20227;-70
2021/12/16 07:59:26;;;;;;;27.92;14.07;;;7.50;99.90;;;;;;5045552;28;20049;-69
2021/12/16 08:01:55;;;;;;;29.67;13.32;;;7.50;99.90;;;;;;5047705;28;20045;-71
2021/12/16 08:04:27;;;;;;;27.33;13.05;;;7.50;99.90;;;;;;5047987;28;20163;-70
2021/12/16 08:06:56;;;;;;;27.42;13.95;;;7.50;99.90;;;;;;5041144;28;20034;-69
2021/12/16 08:09:21;;;;;;;34.65;13.63;;;7.50;99.90;;;;;;5026863;28;20144;-69
2021/12/16 08:11:49;;;;;;;29.25;13.57;;;7.60;99.90;;;;;;5042381;28;20116;-69
2021/12/16 08:14:16;;;;;;;29.95;13.57;;;8.00;99.90;;;;;;5043153;28;20493;-71
2021/12/16 08:16:42;;;;;;;25.30;13.18;;;7.60;99.90;;;;;;5050843;28;20045;-70
2021/12/16 08:19:08;;;;;;;30.63;13.85;;;7.60;99.90;;;;;;5018726;28;20246;-70
2021/12/16 08:21:35;;;;;;;30.05;13.02;;;7.60;99.90;;;;;;5026273;28;20555;-67
2021/12/16 08:24:05;;;;;;;28.98;12.35;;;7.60;99.90;;;;;;5031135;28;20049;-67
2021/12/16 08:26:31;;;;;;;27.35;12.82;;;7.70;99.90;;;;;;5007126;28;20042;-67
2021/12/16 08:28:57;;;;;;;32.60;14.48;;;7.80;99.90;;;;;;5011651;28;20045;-67
2021/12/16 08:31:24;;;;;;;34.13;14.18;;;7.70;99.90;;;;;;5011326;28;20052;-67
2021/12/16 08:33:50;;;;;;;28.98;13.68;;;7.90;99.90;;;;;;5017453;28;20039;-67
2021/12/16 08:36:16;;;;;;;26.77;12.48;;;8.00;99.90;;;;;;5016259;28;20046;-67
2021/12/16 08:38:43;;;;;;;31.38;12.93;;;8.00;99.90;;;;;;4992609;28;20041;-68
2021/12/16 08:41:22;;;;;;;28.92;13.07;;;8.20;99.90;;;;;;5011906;28;20046;-68
2021/12/16 08:43:47;;;;;;;28.88;12.27;;;8.20;99.90;;;;;;5016378;28;20041;-66
2021/12/16 08:46:17;;;;;;;28.92;12.15;;;8.30;99.90;;;;;;5013224;28;20123;-67
2021/12/16 08:48:44;;;;;;;23.30;12.32;;;8.90;99.90;;;;;;5016837;28;20057;-68
2021/12/16 08:51:11;;;;;;;28.10;13.30;;;8.40;99.90;;;;;;5002273;28;20044;-68
2021/12/16 08:53:37;;;;;;;31.05;11.43;;;8.40;99.90;;;;;;5011487;28;20041;-66
2021/12/16 08:56:04;;;;;;;32.92;13.05;;;9.60;99.90;;;;;;5031389;28;20049;-68
2021/12/16 08:58:31;;;;;;;28.85;11.90;;;8.50;99.90;;;;;;5012350;28;20100;-68
2021/12/16 09:01:08;;;;;;;29.88;13.60;;;8.50;99.90;;;;;;5030194;28;20393;-68
2021/12/16 09:03:34;;;;;;;32.38;13.00;;;8.60;99.90;;;;;;5010941;28;20065;-67
2021/12/16 09:06:01;;;;;;;33.72;13.73;;;8.60;99.90;;;;;;5012203;28;20060;-67
2021/12/16 09:08:27;;;;;;;32.38;12.70;;;9.90;99.90;;;;;;5009882;28;20045;-67
2021/12/16 09:10:53;;;;;;;33.50;12.88;;;8.70;99.90;;;;;;5012016;28;20042;-67
2021/12/16 09:13:19;;;;;;;40.90;12.93;;;8.60;99.90;;;;;;5010898;28;20437;-67
2021/12/16 09:15:50;;;;;;;34.28;14.88;;;8.60;99.90;;;;;;5010994;28;20042;-67
2021/12/16 09:18:18;;;;;;;35.47;13.93;;;8.50;99.90;;;;;;5017759;28;20053;-68
2021/12/16 09:20:44;;;;;;;36.72;14.40;;;8.40;99.90;;;;;;5044442;28;20119;-68
2021/12/16 09:23:11;;;;;;;36.47;14.57;;;8.40;99.90;;;;;;5030131;28;20053;-67
2021/12/16 09:25:38;;;;;;;40.95;15.90;;;8.40;99.90;;;;;;5028360;28;20067;-68
2021/12/16 09:28:04;;;;;;;36.15;14.50;;;9.30;99.90;;;;;;5029575;28;20406;-67
2021/12/16 09:30:31;;;;;;;43.40;14.75;;;8.50;99.90;;;;;;5033551;28;20056;-67
2021/12/16 09:32:59;;;;;;;45.30;15.98;;;8.50;99.90;;;;;;5049110;28;20572;-68
2021/12/16 09:35:27;;;;;;;62.80;16.27;;;8.50;99.90;;;;;;5042374;28;20049;-67
2021/12/16 09:37:54;;;;;;;56.08;16.60;;;8.50;99.90;;;;;;5028653;28;20473;-68
2021/12/16 09:40:24;;;;;;;42.33;16.95;;;8.50;99.90;;;;;;5040904;28;20044;-67
2021/12/16 09:42:51;;;;;;;50.67;17.23;;;8.60;99.90;;;;;;5049515;28;20043;-68
2021/12/16 09:45:18;;;;;;;50.17;16.75;;;8.60;99.90;;;;;;5048769;28;20053;-68
2021/12/16 09:47:44;;;;;;;58.42;17.60;;;8.70;99.90;;;;;;5049008;28;20060;-67
2021/12/16 09:50:13;;;;;;;78.97;19.50;;;8.70;99.90;;;;;;5045646;28;20080;-67
2021/12/16 09:52:39;;;;;;;103.90;18.48;;;8.70;99.90;;;;;;5035232;28;20115;-67
2021/12/16 09:55:08;;;;;;;71.03;18.33;;;8.70;99.90;;;;;;5042444;28;20041;-67
2021/12/16 09:57:34;;;;;;;75.82;17.77;;;8.70;99.90;;;;;;5045052;28;20051;-68
2021/12/16 10:00:03;;;;;;;116.03;18.25;;;8.80;99.90;;;;;;5041835;28;20452;-67
2021/12/16 10:02:28;;;;;;;102.22;18.95;;;8.80;99.90;;;;;;5049570;28;20469;-67
2021/12/16 10:04:54;;;;;;;130.90;17.58;;;9.00;99.90;;;;;;5028699;28;20454;-67
2021/12/16 10:07:32;;;;;;;93.00;18.48;;;8.80;99.90;;;;;;4994803;28;20198;-67
2021/12/16 10:09:59;;;;;;;85.18;19.08;;;8.90;99.90;;;;;;5026321;28;20037;-66
2021/12/16 10:12:30;;;;;;;80.05;19.77;;;8.90;99.90;;;;;;5043064;28;20106;-66
2021/12/16 10:17:29;;;;;;;142.30;21.58;;;8.90;99.90;;;;;;5047230;28;20144;-66
2021/12/16 10:20:00;;;;;;;63.25;20.00;;;8.90;99.90;;;;;;5041355;28;20122;-66
2021/12/16 10:22:35;;;;;;;90.93;21.02;;;8.80;99.90;;;;;;5039026;28;20077;-67
2021/12/16 10:25:22;;;;;;;78.07;18.15;;;8.90;99.90;;;;;;5027185;28;20493;-67
2021/12/16 10:28:10;;;;;;;96.68;18.83;;;8.90;99.90;;;;;;5045896;28;20053;-66
2021/12/16 10:30:50;;;;;;;72.75;18.67;;;8.90;99.90;;;;;;5047770;28;20076;-67
2021/12/16 10:33:35;;;;;;;76.65;19.27;;;8.90;99.90;;;;;;5048664;28;20049;-69
2021/12/16 10:36:15;;;;;;;74.70;20.13;;;8.90;99.90;;;;;;5048000;28;20094;-67
2021/12/16 10:38:55;;;;;;;59.00;19.35;;;8.80;99.90;;;;;;5047402;28;20059;-68
2021/12/16 10:41:26;;;;;;;75.38;20.00;;;8.90;99.90;;;;;;5048170;28;20056;-68
2021/12/16 10:44:17;;;;;;;97.20;20.23;;;8.90;99.90;;;;;;5038454;28;20040;-68
2021/12/16 10:46:47;;;;;;;88.28;20.52;;;8.90;99.90;;;;;;5048343;28;20055;-67
2021/12/16 10:49:20;;;;;;;81.15;21.25;;;8.90;99.90;;;;;;5037551;28;20051;-68
2021/12/16 10:51:54;;;;;;;91.93;19.10;;;8.90;99.90;;;;;;5046525;28;20386;-67
2021/12/16 10:54:41;;;;;;;90.85;19.55;;;9.00;99.90;;;;;;5042633;28;20045;-67
2021/12/16 10:57:12;;;;;;;115.00;18.77;;;8.90;99.90;;;;;;5028879;28;20045;-67
2021/12/16 10:59:44;;;;;;;94.20;19.02;;;9.00;99.90;;;;;;5028130;28;20045;-67
2021/12/16 11:02:25;;;;;;;97.85;19.80;;;8.90;99.90;;;;;;5027548;28;20124;-67
2021/12/16 11:05:00;;;;;;;117.50;18.80;;;9.00;99.90;;;;;;5035526;28;20260;-67
2021/12/16 11:07:27;;;;;;;66.55;18.80;;;8.90;99.90;;;;;;5029639;28;20041;-68
2021/12/16 11:09:55;;;;;;;108.75;19.20;;;8.90;99.90;;;;;;5026399;28;20421;-67
2021/12/16 11:12:32;;;;;;;47.40;17.30;;;9.00;99.90;;;;;;5026641;28;20056;-68
2021/12/16 11:15:18;;;;;;;167.15;19.10;;;9.00;99.90;;;;;;5028327;28;20076;-68
2021/12/16 11:17:48;;;;;;;62.58;18.23;;;8.90;99.90;;;;;;5027139;28;20137;-68
2021/12/16 11:20:25;;;;;;;67.80;17.98;;;9.00;99.90;;;;;;5025542;28;20160;-68
2021/12/16 11:22:58;;;;;;;56.90;18.05;;;9.00;99.90;;;;;;5028562;28;20084;-68
2021/12/16 11:25:30;;;;;;;75.07;18.90;;;9.10;99.90;;;;;;5025595;28;20136;-68
2021/12/16 11:28:14;;;;;;;85.38;19.45;;;9.10;99.90;;;;;;5026900;28;20042;-68
2021/12/16 11:30:56;;;;;;;105.20;18.42;;;9.00;99.90;;;;;;5029702;28;20053;-68
2021/12/16 11:33:32;;;;;;;71.53;17.88;;;9.10;99.90;;;;;;5028056;28;20049;-68
2021/12/16 11:36:01;;;;;;;102.53;18.58;;;9.10;99.90;;;;;;5026075;28;20050;-68
2021/12/16 11:38:52;;;;;;;92.20;19.70;;;9.10;99.90;;;;;;5041616;28;20053;-68
2021/12/16 11:41:21;;;;;;;105.57;19.10;;;9.00;99.90;;;;;;5045616;28;20048;-68
2021/12/16 11:43:58;;;;;;;101.07;17.73;;;9.10;99.90;;;;;;5047947;28;20148;-68
2021/12/16 11:46:37;;;;;;;76.03;16.33;;;9.10;99.90;;;;;;5046353;28;20575;-68
2021/12/16 11:49:09;;;;;;;60.70;16.73;;;9.10;99.90;;;;;;5045982;28;20045;-68
2021/12/16 11:51:39;;;;;;;107.57;17.23;;;9.10;99.90;;;;;;5046767;28;20056;-68
2021/12/16 11:54:26;;;;;;;45.75;17.08;;;9.10;99.90;;;;;;5046016;28;20036;-69
2021/12/16 11:57:18;;;;;;;50.38;16.20;;;9.00;99.90;;;;;;5046828;28;20049;-69
2021/12/16 11:59:58;;;;;;;53.80;15.40;;;9.00;99.90;;;;;;5046001;28;20037;-68
2021/12/16 12:02:36;;;;;;;148.85;19.02;;;9.00;99.90;;;;;;5045828;28;20041;-68
2021/12/16 12:05:23;;;;;;;110.18;18.98;;;9.00;99.90;;;;;;5029433;28;20129;-69
2021/12/16 12:08:04;;;;;;;73.93;19.20;;;9.20;99.90;;;;;;5047699;28;20120;-68
2021/12/16 12:10:36;;;;;;;50.05;17.55;;;9.00;99.90;;;;;;5044170;28;20045;-67
2021/12/16 12:13:06;;;;;;;53.97;17.20;;;9.00;99.90;;;;;;5047131;28;20373;-67
2021/12/16 12:15:51;;;;;;;56.92;18.80;;;9.00;99.90;;;;;;5046410;28;20452;-68
2021/12/16 12:18:53;;;;;;;73.05;19.33;;;9.00;99.90;;;;;;5047162;28;20045;-68
2021/12/16 12:21:20;;;;;;;70.10;16.92;;;9.10;99.90;;;;;;4968916;28;20109;-68
2021/12/16 12:23:47;;;;;;;42.28;17.95;;;10.10;99.90;;;;;;5029723;28;20131;-68
2021/12/16 12:26:16;;;;;;;46.70;18.13;;;9.10;99.90;;;;;;5044516;28;20383;-67
2021/12/16 12:28:44;;;;;;;35.08;16.45;;;10.00;99.90;;;;;;5046012;28;20041;-68
2021/12/16 12:31:10;;;;;;;52.10;17.98;;;9.10;99.90;;;;;;5046992;28;20041;-67
2021/12/16 12:33:36;;;;;;;40.00;17.58;;;9.10;99.90;;;;;;5047407;28;20460;-67
2021/12/16 12:36:02;;;;;;;47.80;20.25;;;9.10;99.90;;;;;;5047105;28;20168;-67
2021/12/16 12:38:28;;;;;;;78.88;20.25;;;9.10;99.90;;;;;;5045520;28;20105;-67
2021/12/16 12:40:54;;;;;;;51.97;19.85;;;9.20;99.90;;;;;;5049984;28;20049;-67
2021/12/16 12:43:22;;;;;;;48.08;19.63;;;9.10;99.90;;;;;;5047300;28;20037;-69
2021/12/16 12:45:48;;;;;;;50.08;18.45;;;9.10;99.90;;;;;;5047249;28;20456;-66
2021/12/16 12:48:17;;;;;;;36.25;18.63;;;9.10;99.90;;;;;;5047133;28;20143;-66
2021/12/16 12:50:47;;;;;;;54.58;17.63;;;9.20;99.90;;;;;;5047398;28;20113;-68
2021/12/16 12:53:22;;;;;;;36.75;16.85;;;9.20;99.90;;;;;;5028487;28;20049;-69
2021/12/16 12:55:50;;;;;;;42.93;19.17;;;9.20;99.90;;;;;;5046123;28;20373;-68
2021/12/16 12:58:19;;;;;;;42.42;17.63;;;9.20;99.90;;;;;;5049371;28;20389;-69
2021/12/16 13:00:52;;;;;;;63.80;16.88;;;9.20;99.90;;;;;;5050625;28;20041;-68
2021/12/16 13:03:37;;;;;;;43.30;19.77;;;9.20;99.90;;;;;;5051807;28;20083;-68
2021/12/16 13:06:15;;;;;;;44.92;17.45;;;9.20;99.90;;;;;;5030877;28;20462;-68
2021/12/16 13:08:49;;;;;;;46.45;19.35;;;9.20;99.90;;;;;;5027979;28;20549;-68
2021/12/16 13:11:25;;;;;;;39.50;18.85;;;9.20;99.90;;;;;;5031332;28;20099;-67
2021/12/16 13:14:08;;;;;;;36.45;18.00;;;9.20;99.90;;;;;;5031200;28;20052;-68
2021/12/16 13:28:05;;;;;;;38.47;17.20;;;9.30;99.90;;;;;;5024853;28;20056;-66
2021/12/16 13:30:39;;;;;;;39.58;18.25;;;9.30;99.90;;;;;;5029317;28;20053;-66
2021/12/16 13:33:20;;;;;;;41.95;18.45;;;9.40;99.90;;;;;;5030427;28;20057;-66
2021/12/16 13:36:02;;;;;;;44.08;18.33;;;9.40;99.90;;;;;;5044807;28;20057;-67
2021/12/16 13:38:40;;;;;;;40.63;17.75;;;9.40;99.90;;;;;;5029528;28;20033;-67
2021/12/16 13:41:20;;;;;;;38.47;17.70;;;9.40;99.90;;;;;;5029469;28;20060;-67
2021/12/16 13:44:10;;;;;;;40.90;17.58;;;9.40;99.90;;;;;;5030428;28;20315;-67
2021/12/16 14:02:34;;;;;;;27.65;11.77;;;9.60;99.90;;;;;;5027791;28;20053;-68
2021/12/16 14:05:17;;;;;;;27.33;11.68;;;9.60;99.90;;;;;;5029756;28;20081;-68
2021/12/16 14:07:56;;;;;;;30.77;12.27;;;9.60;99.90;;;;;;5027736;28;20053;-67
2021/12/16 14:10:33;;;;;;;27.65;11.80;;;9.60;99.90;;;;;;5026505;28;20064;-68
2021/12/16 14:16:41;;;;;;;33.17;12.77;;;9.50;99.90;;;;;;5029710;28;20049;-68
2021/12/16 14:27:22;;;;;;;32.83;14.10;;;9.40;99.90;;;;;;5030451;28;20053;-67
2021/12/16 14:35:04;;;;;;;32.08;12.88;;;9.40;99.90;;;;;;5048376;28;20079;-68
2021/12/16 14:43:01;;;;;;;38.72;13.98;;;9.40;99.90;;;;;;5049198;28;20056;-69
2021/12/16 14:45:36;;;;;;;38.75;14.57;;;9.40;99.90;;;;;;5048104;28;20045;-66
2021/12/16 14:48:23;;;;;;;30.90;12.50;;;9.40;99.90;;;;;;5047800;28;20029;-68
2021/12/16 14:51:12;;;;;;;32.83;13.85;;;9.70;99.90;;;;;;5048597;28;20049;-67
2021/12/16 14:53:38;;;;;;;39.80;13.73;;;9.40;99.90;;;;;;5029378;28;20142;-67
2021/12/16 14:56:13;;;;;;;38.35;15.13;;;9.90;99.90;;;;;;5048607;28;20076;-67
2021/12/16 14:58:40;;;;;;;36.55;13.90;;;9.40;99.90;;;;;;5047928;28;20068;-67
2021/12/16 15:01:18;;;;;;;30.73;11.77;;;9.40;99.90;;;;;;5048397;28;20052;-68
2021/12/16 15:03:46;;;;;;;32.65;12.52;;;9.40;99.90;;;;;;5048217;28;20055;-67
2021/12/16 15:06:21;;;;;;;34.72;13.25;;;9.40;99.90;;;;;;5046853;28;20316;-67
2021/12/16 15:11:49;;;;;;;35.72;12.77;;;9.30;99.90;;;;;;5049400;28;19924;-68
2021/12/16 15:15:18;;;;;;;36.00;14.25;;;9.40;99.90;;;;;;5050019;28;20073;-68
2021/12/16 15:17:24;;;;;;;37.88;15.02;;;9.40;99.90;;;;;;5041480;28;20494;-68
2021/12/16 15:36:53;;;;;;;35.75;13.80;;;9.20;99.90;;;;;;5046273;28;20053;-67
2021/12/16 15:39:53;;;;;;;37.60;14.23;;;9.10;99.90;;;;;;5041538;28;20136;-67
2021/12/16 15:44:58;;;;;;;39.30;15.27;;;9.20;99.90;;;;;;5028363;28;20421;-67
2021/12/16 15:47:24;;;;;;;41.15;15.73;;;9.10;99.90;;;;;;5025588;28;20125;-66
2021/12/16 15:49:52;;;;;;;41.35;14.93;;;9.10;99.90;;;;;;5028209;28;20132;-69
2021/12/16 15:52:18;;;;;;;40.42;15.98;;;9.10;99.90;;;;;;5027829;28;20044;-67
2021/12/16 15:54:49;;;;;;;31.25;15.02;;;9.10;99.90;;;;;;5042277;28;20076;-67
2021/12/16 15:57:17;;;;;;;35.55;15.18;;;9.70;99.90;;;;;;5045339;28;20513;-67
2021/12/16 15:59:50;;;;;;;31.67;14.20;;;9.10;99.90;;;;;;5038189;28;20369;-67
2021/12/16 16:02:18;;;;;;;35.13;14.90;;;9.10;99.90;;;;;;5046551;28;20045;-67
2021/12/16 16:04:44;;;;;;;35.83;15.30;;;9.10;99.90;;;;;;5046529;28;20091;-66
2021/12/16 16:07:12;;;;;;;36.85;14.13;;;9.10;99.90;;;;;;5030978;28;20085;-67
2021/12/16 16:09:46;;;;;;;32.67;14.73;;;9.10;99.90;;;;;;5046260;28;20091;-67
2021/12/16 16:12:16;;;;;;;32.13;14.95;;;9.10;99.90;;;;;;5045381;28;20152;-67
2021/12/16 16:14:49;;;;;;;38.05;15.98;;;9.10;99.90;;;;;;5046726;28;20088;-67
2021/12/16 16:17:18;;;;;;;32.65;14.18;;;9.10;99.90;;;;;;5042369;28;20044;-67
2021/12/16 16:19:48;;;;;;;32.30;15.70;;;9.10;99.90;;;;;;5033891;28;20084;-67
2021/12/16 16:22:14;;;;;;;33.90;15.27;;;9.10;99.90;;;;;;5046525;28;20045;-67
2021/12/16 16:24:47;;;;;;;39.80;17.75;;;9.10;99.90;;;;;;5046027;28;20037;-67
2021/12/16 16:27:28;;;;;;;35.15;17.17;;;9.20;99.90;;;;;;5035212;28;20383;-67
2021/12/16 16:29:57;;;;;;;42.63;20.33;;;9.20;99.90;;;;;;5028987;28;20048;-67
2021/12/16 16:32:25;;;;;;;48.13;19.95;;;9.10;99.90;;;;;;5050886;28;20099;-67
2021/12/16 16:34:53;;;;;;;39.17;19.90;;;9.70;99.90;;;;;;5047406;28;20075;-67